Aviation Digital Data Service (ADDS)

Output produced by METARs form (1350 UTC 13 December 2019)
found at http://www.aviationweather.gov/metar/data/
 
Forecast for: UDYZ (ZVARTNOTS , AM)
Text: TAF UDYZ 131100Z 1312/1412 22006KT 3500 BR BKN030
Forecast period: 1200 UTC 13 December 2019 to 1200 UTC 14 December 2019
Forecast type: FROM: standard forecast or significant change
Winds: from the SW (220 degrees) at 7 MPH (6 knots; 3.1 m/s)
Visibility: 2.17 miles (3.49 km)
Ceiling: 3000 feet AGL
Clouds: broken clouds at 3000 feet AGL
Weather: BR  (mist)
Text: TEMPO 1312/1321 1000 RA BR OVC007
Forecast period: 1200 to 2100 UTC 13 December 2019
Forecast type: TEMPORARY: The following changes expected for less than half the time period
Visibility: 0.62 miles (1.00 km)
Ceiling: 700 feet AGL
Clouds: overcast cloud deck at 700 feet AGL
Weather: RA BR  (moderate rain, mist)